Aitkin, Minnesota
Current Conditions -  °F | °C
As of 12:54 PM on Tuesday 27 Jan 2015 (Local Time) from KAIT Reporting Station
Overcast Overcast  
Wind Chill: 30°   Ceiling: 1600
Heat Index: 36°   Visibility: 10mi
Dew Point: 27°   Wind: 7mph
Humidity: 70%   Direction: 180°S
Pressure: 30.11"   Gusts: NA
Location:  46.53°N, 93.71°W
Report Text: KAIT 271854Z AUTO 18006KT 10SM OVC016 02/M03 A3011 RMK AO2
Loading
Personal Weather Stations






























Interactive Weather Map New forecast layout! Learn more

10-Day Weather Forecast

Advertisements
Track Severe Weather on mobile